Main page
METAR-TAF:

METAR-TAF

Airports :

London, England

London City Airport

latitude: 51-30N, longitude: 000-03E, elevation: 5 m

Current weather observation

The report was made 56 minutes ago, at 09:50 UTC
Wind 3 kt from variable directions
Temperature 5°C
Humidity 81%
Pressure 1029 hPa
Visibility 10 km or more

METAR: EGLC 180950Z AUTO VRB03KT 9999 NCD 05/02 Q1029

Time: 10:46 (10:46 UTC)

Forecast

The report was made 1 hour and 28 minutes ago, at 09:18 UTC
Forecast valid from 18 at 09 UTC to 18 at 18 UTC
Wind 5 kt from the Northwest
Visibility 10 km or more
Few clouds at a height of 3500 ft
Becoming
from 18 at 15 UTC to 18 at 18 UTC
Visibility: 8000 m

TAF: EGLC 180918Z 1809/1818 31005KT 9999 FEW035 BECMG 1815/1818 8000

Weather observations and forecasts of more than 4000 airports (METAR and TAF reports).

The available stations are represented by yellow and red dots on the map.

Hover mouse over dot to see the name of the station.

Then click to see weather observations and forecasts.

To change the map : click on the green buttons with a black cross to zoom in, on the green button with a dash to zoom out, or on the green arrows for adjacent maps.


METAR-TAF: